Etusivu
METAR-TAF:

METAR-TAF

Lentoasemat :

Grande Prairie, Alberta, Kanada

Leveyspiiri: 55-11N, Pituuspiiri: 118-53W, korkeus merenpinnasta: 666 m

Tämänhetkinen sää

Tämä raportti tehtiin 37 minuuttia sitten, kello 19.00 UTC
Tuuli 3 kn pohjoisen/luoteesta, vaihdellen lännen ja pohjoisen välillä
Lämpötila -3°C
Kosteus 80%
Ilmanpaine 1016 hPa
Näkyvyys: 40.2 km
Hajonneita pilviä 11000 ft:n korkeudessa

METAR: CYQU 031900Z 33003KT 280V360 25SM BKN110 M03/M06 A3000 RMK AC6 SLP204

Aika: 12:37 (19:37 UTC)

Sääennuste

Tämä raportti tehtiin 59 minuuttia sitten, kello 18.38 UTC
Ennuste voimassa 03. päivästä klo 19 UTC - 04. päivään klo 07 UTC
Tuuli 3 kn eri suunnista
Näkyvyys: 10 km
Hajonneita pilviä 11000 ft:n korkeudessa
Pilvistä 22000 ft:n korkeudessa
From 04. päivästä klo 0600 UTC
Tuuli 5 kn lännestä
Näkyvyys: 10 km
Hajanaisia pilviä 6000 ft:n korkeudessa

TAF: CYQU 031838Z 0319/0407 VRB03KT P6SM BKN110 OVC220 FM040600 27005KT P6SM SCT060 RMK NXT FCST BY 040100Z

Säähavainnot ja -ennusteet yli 4000 lentoasemalta (METAR- ja TAF-raportit).

Käytössä olevat sääasemat on merkitty karttaan keltaisilla ja punaisilla pisteillä.

Aseta hiiri pisteen päälle nähdäksesi sääaseman nimen.

Klikkaa sitten nähdäksesi säähavainnot ja -ennusteet.

Kartan vaihtaminen: klikkaa mustalla rastilla varustettuja vihreitä pisteitä, niin voit zoomata sisään; viivalla varustettua vihreää pistettä, niin voit zoomata ulos tai vihreitä nuolia, niin pääset viereisille kartoille.


METAR-TAF: